Time;durP1;ratioP1;P1;durP2;ratioP2;P2;SDS_P1;SDS_P2;PMS_P1;PMS_P2;Temp;Humidity;BMP_temperature;BMP_pressure;BME280_temperature;BME280_humidity;BME280_pressure;Samples;Min_cycle;Max_cycle;Signal;HPM_P1;HPM_P2
2023/06/10 00:00:27;;;;;;;;;;;;;;;23.83;61.57;98470.59;2086483;28;19924;-65
2023/06/10 00:01:30;;;;;;;;;;;;;;;23.85;61.81;98473.06;2089955;28;20272;-65
2023/06/10 00:02:32;;;;;;;;;;;;;;;23.83;61.99;98470.59;2088322;28;19974;-65
2023/06/10 00:03:33;;;;;;;;;;;;;;;23.84;61.78;98468.69;2091322;28;19925;-65
2023/06/10 00:04:34;;;;;;;;;;;;;;;23.83;61.79;98467.88;2089031;28;20280;-65
2023/06/10 00:05:38;;;;;;;;;;;;;;;23.85;61.71;98467.66;2091856;28;19935;-65
2023/06/10 00:06:39;;;;;;;;;;;;;;;23.84;62.11;98465.97;2090255;28;20394;-65
2023/06/10 00:07:41;;;;;;;;;;;;;;;23.85;61.78;98465.75;2090092;28;19924;-65
2023/06/10 00:08:42;;;;;;;;;;;;;;;23.84;61.74;98468.69;2091080;28;19920;-65
2023/06/10 00:09:43;;;;;;;;;;;;;;;23.83;61.96;98465.16;2090273;28;19935;-65
2023/06/10 00:10:44;;;;;;;;;;;;;;;23.84;62.11;98463.28;2090252;28;20885;-67
2023/06/10 00:11:46;;;;;;;;;;;;;;;23.83;62.00;98465.16;2090726;28;20393;-65
2023/06/10 00:12:46;;;;;;;;;;;;;;;23.83;61.92;98465.16;2089740;28;19924;-65
2023/06/10 00:13:48;;;;;;;;;;;;;;;23.83;61.66;98456.22;2091213;28;19928;-66
2023/06/10 00:14:50;;;;;;;;;;;;;;;23.82;62.01;98455.41;2089761;28;19932;-65
2023/06/10 00:15:51;;;;;;;;;;;;;;;23.83;61.89;98451.63;2091098;28;19920;-66
2023/06/10 00:16:52;;;;;;;;;;;;;;;23.83;62.02;98457.03;2090283;28;20329;-66
2023/06/10 00:17:55;;;;;;;;;;;;;;;23.83;61.92;98446.22;2090274;28;19928;-66
2023/06/10 00:18:55;;;;;;;;;;;;;;;23.83;62.04;98448.09;2086441;28;19924;-66
2023/06/10 00:19:59;;;;;;;;;;;;;;;23.83;61.80;98448.91;2091754;28;20383;-66
2023/06/10 00:21:05;;;;;;;;;;;;;;;23.83;61.80;98448.09;2089767;28;19924;-66
2023/06/10 00:22:07;;;;;;;;;;;;;;;23.83;62.06;98456.22;2092094;28;20375;-66
2023/06/10 00:23:08;;;;;;;;;;;;;;;23.81;61.85;98459.16;2091282;28;20015;-65
2023/06/10 00:24:11;;;;;;;;;;;;;;;23.81;62.00;98456.44;2090194;28;19964;-65
2023/06/10 00:25:12;;;;;;;;;;;;;;;23.81;61.92;98459.16;2089245;28;20081;-66
2023/06/10 00:26:13;;;;;;;;;;;;;;;23.83;62.11;98448.09;2088108;28;20393;-66
2023/06/10 00:27:14;;;;;;;;;;;;;;;23.83;62.04;98448.09;2089260;28;19971;-66
2023/06/10 00:28:15;;;;;;;;;;;;;;;23.81;62.03;98453.75;2089984;28;19921;-65
2023/06/10 00:29:16;;;;;;;;;;;;;;;23.81;61.98;98452.94;2090615;28;19925;-66
2023/06/10 00:30:18;;;;;;;;;;;;;;;23.81;61.99;98459.16;2090489;28;19931;-65
2023/06/10 00:31:18;;;;;;;;;;;;;;;23.81;62.06;98461.88;2090622;28;20016;-66
2023/06/10 00:32:20;;;;;;;;;;;;;;;23.81;61.90;98461.88;2090210;28;19934;-66
2023/06/10 00:33:21;;;;;;;;;;;;;;;23.79;62.25;98453.19;2088028;28;20467;-66
2023/06/10 00:34:23;;;;;;;;;;;;;;;23.81;61.93;98458.34;2089438;28;19973;-66
2023/06/10 00:35:24;;;;;;;;;;;;;;;23.81;61.93;98461.88;2089675;28;19921;-66
2023/06/10 00:36:26;;;;;;;;;;;;;;;23.81;61.89;98452.94;2089723;28;20486;-66
2023/06/10 00:37:28;;;;;;;;;;;;;;;23.82;62.05;98443.72;2088638;28;20368;-66
2023/06/10 00:38:30;;;;;;;;;;;;;;;23.82;62.06;98441.88;2089181;28;19921;-65
2023/06/10 00:39:30;;;;;;;;;;;;;;;23.83;61.97;98434.56;2090213;28;19978;-66
2023/06/10 00:40:32;;;;;;;;;;;;;;;23.81;61.94;98436.69;2089343;28;20383;-65
2023/06/10 00:41:33;;;;;;;;;;;;;;;23.84;62.03;98433.47;2090229;28;19973;-65
2023/06/10 00:42:35;;;;;;;;;;;;;;;23.84;61.87;98434.28;2091075;28;19924;-65
2023/06/10 00:43:35;;;;;;;;;;;;;;;23.83;62.03;98435.38;2088590;28;20007;-65
2023/06/10 00:44:37;;;;;;;;;;;;;;;23.81;62.19;98432.06;2090876;28;19932;-66
2023/06/10 00:45:37;;;;;;;;;;;;;;;23.80;61.97;98433.16;2092004;28;19979;-65
2023/06/10 00:46:39;;;;;;;;;;;;;;;23.80;62.00;98427.72;2089816;28;20246;-65
2023/06/10 00:47:40;;;;;;;;;;;;;;;23.81;62.15;98432.06;2090791;28;20364;-65
2023/06/10 00:48:44;;;;;;;;;;;;;;;23.81;62.32;98433.97;2089229;28;19924;-66
2023/06/10 00:49:45;;;;;;;;;;;;;;;23.79;62.02;98436.94;2087424;28;19924;-67
2023/06/10 00:50:47;;;;;;;;;;;;;;;23.80;62.11;98432.34;2085245;28;19928;-65
2023/06/10 00:51:48;;;;;;;;;;;;;;;23.78;62.19;98424.44;2090454;28;20347;-66
2023/06/10 00:52:51;;;;;;;;;;;;;;;23.78;62.25;98423.63;2090135;28;19920;-66
2023/06/10 00:53:52;;;;;;;;;;;;;;;23.81;62.01;98425.84;2091694;28;19925;-65
2023/06/10 00:54:53;;;;;;;;;;;;;;;23.79;62.12;98422.53;2090847;28;19932;-65
2023/06/10 00:55:54;;;;;;;;;;;;;;;23.80;61.98;98411.47;2089916;28;20271;-66
2023/06/10 00:56:56;;;;;;;;;;;;;;;23.79;62.17;98417.97;2089616;28;19924;-65
2023/06/10 00:57:56;;;;;;;;;;;;;;;23.81;61.97;98423.13;2088120;28;19921;-65
2023/06/10 00:58:58;;;;;;;;;;;;;;;23.80;62.30;98422.31;2091468;28;19920;-66
2023/06/10 00:59:59;;;;;;;;;;;;;;;23.80;62.19;98422.31;2088274;28;20003;-66
2023/06/10 01:01:00;;;;;;;;;;;;;;;23.80;62.21;98416.91;2090219;28;20006;-66
2023/06/10 01:02:02;;;;;;;;;;;;;;;23.81;62.18;98423.13;2091802;28;19924;-66
2023/06/10 01:03:07;;;;;;;;;;;;;;;23.81;61.98;98418.53;2090591;28;19925;-66
2023/06/10 01:04:11;;;;;;;;;;;;;;;23.81;62.12;98420.44;2090561;28;19970;-66
2023/06/10 01:05:13;;;;;;;;;;;;;;;23.80;62.19;98422.31;2089834;28;19925;-66
2023/06/10 01:06:19;;;;;;;;;;;;;;;23.80;62.03;98422.31;2088716;28;20853;-66
2023/06/10 01:07:24;;;;;;;;;;;;;;;23.81;62.03;98418.53;2088681;28;19943;-66
2023/06/10 01:08:29;;;;;;;;;;;;;;;23.82;61.93;98419.34;2089193;28;19920;-66
2023/06/10 01:09:33;;;;;;;;;;;;;;;23.81;62.04;98426.66;2087819;28;19947;-65
2023/06/10 01:10:35;;;;;;;;;;;;;;;23.82;62.11;98424.75;2091541;28;20448;-66
2023/06/10 01:11:41;;;;;;;;;;;;;;;23.83;62.05;98431.84;2090125;28;19930;-65
2023/06/10 01:12:48;;;;;;;;;;;;;;;23.82;61.95;98431.03;2089273;28;20022;-66
2023/06/10 01:13:52;;;;;;;;;;;;;;;23.82;61.87;98427.47;2089010;28;19924;-66
2023/06/10 01:14:52;;;;;;;;;;;;;;;23.81;62.15;98421.25;2088949;28;20346;-67
2023/06/10 01:15:54;;;;;;;;;;;;;;;23.82;62.16;98430.19;2089788;28;19920;-66
2023/06/10 01:16:56;;;;;;;;;;;;;;;23.80;62.27;98433.16;2089048;28;19951;-65
2023/06/10 01:17:58;;;;;;;;;;;;;;;23.80;62.02;98429.63;2089691;28;20298;-65
2023/06/10 01:19:00;;;;;;;;;;;;;;;23.79;62.09;98431.53;2091071;28;20386;-66
2023/06/10 01:20:11;;;;;;;;;;;;;;;23.81;62.20;98434.78;2089916;28;19928;-66
2023/06/10 01:21:16;;;;;;;;;;;;;;;23.82;62.00;98430.19;2089669;28;19920;-66
2023/06/10 01:22:17;;;;;;;;;;;;;;;23.81;62.18;98428.56;2090460;28;19932;-66
2023/06/10 01:23:18;;;;;;;;;;;;;;;23.83;62.21;98427.25;2090306;28;19931;-65
2023/06/10 01:24:19;;;;;;;;;;;;;;;23.81;62.01;98423.94;2089766;28;20008;-66
2023/06/10 01:25:27;;;;;;;;;;;;;;;23.80;62.15;98427.72;2089468;28;19930;-66
2023/06/10 01:26:32;;;;;;;;;;;;;;;23.81;61.95;98426.66;2089949;28;19921;-64
2023/06/10 01:27:39;;;;;;;;;;;;;;;23.83;62.03;98427.25;2092022;28;19924;-65
2023/06/10 01:28:45;;;;;;;;;;;;;;;23.80;62.16;98425.03;2090760;28;19963;-66
2023/06/10 01:29:52;;;;;;;;;;;;;;;23.82;62.22;98431.03;2091294;28;20378;-65
2023/06/10 01:30:57;;;;;;;;;;;;;;;23.82;61.98;98424.75;2091436;28;20001;-66
2023/06/10 01:32:02;;;;;;;;;;;;;;;23.81;61.92;98423.94;2086599;28;20085;-66
2023/06/10 01:33:07;;;;;;;;;;;;;;;23.80;62.22;98416.91;2089446;28;19942;-66
2023/06/10 01:34:10;;;;;;;;;;;;;;;23.79;62.25;98415.28;2088523;28;19939;-66
2023/06/10 01:35:11;;;;;;;;;;;;;;;23.80;62.31;98414.19;2092503;28;20708;-65
2023/06/10 01:36:15;;;;;;;;;;;;;;;23.80;61.99;98414.19;2090296;28;20801;-66
2023/06/10 01:37:18;;;;;;;;;;;;;;;23.81;62.09;98413.13;2091670;28;20492;-65
2023/06/10 01:38:20;;;;;;;;;;;;;;;23.82;62.30;98405.81;2091266;28;19940;-65
2023/06/10 01:39:23;;;;;;;;;;;;;;;23.80;62.19;98403.38;2090721;28;19980;-66
2023/06/10 01:40:25;;;;;;;;;;;;;;;23.80;62.11;98403.38;2092103;28;20035;-65
2023/06/10 01:41:27;;;;;;;;;;;;;;;23.80;62.32;98405.25;2091718;28;19982;-66
2023/06/10 01:42:28;;;;;;;;;;;;;;;23.79;62.39;98399.03;2088726;28;20323;-64
2023/06/10 01:43:29;;;;;;;;;;;;;;;23.80;62.23;98405.25;2090910;28;19998;-64
2023/06/10 01:44:30;;;;;;;;;;;;;;;23.80;62.38;98400.66;2091188;28;20018;-65
2023/06/10 01:45:31;;;;;;;;;;;;;;;23.81;62.23;98396.88;2090706;28;19924;-65
2023/06/10 01:46:32;;;;;;;;;;;;;;;23.81;62.14;98398.75;2091908;28;20031;-65
2023/06/10 01:47:34;;;;;;;;;;;;;;;23.80;62.34;98400.66;2089094;28;19935;-65
2023/06/10 01:48:34;;;;;;;;;;;;;;;23.80;62.33;98397.94;2087428;28;19939;-65
2023/06/10 01:49:36;;;;;;;;;;;;;;;23.80;62.14;98394.41;2091456;28;19968;-66
2023/06/10 01:50:36;;;;;;;;;;;;;;;23.80;62.33;98395.22;2090926;28;19932;-65
2023/06/10 01:51:40;;;;;;;;;;;;;;;23.80;62.46;98394.41;2091892;28;20556;-65
2023/06/10 01:52:40;;;;;;;;;;;;;;;23.79;62.55;98395.47;2091271;28;20011;-66
2023/06/10 01:53:42;;;;;;;;;;;;;;;23.79;62.41;98393.59;2090519;28;19920;-66
2023/06/10 01:54:42;;;;;;;;;;;;;;;23.79;62.46;98390.91;2092198;28;19927;-65
2023/06/10 01:55:44;;;;;;;;;;;;;;;23.79;62.48;98393.59;2091148;28;21307;-66
2023/06/10 01:56:44;;;;;;;;;;;;;;;23.79;62.34;98390.06;2091614;28;20371;-66
2023/06/10 01:57:46;;;;;;;;;;;;;;;23.80;62.45;98395.22;2092322;28;19935;-66
2023/06/10 01:58:46;;;;;;;;;;;;;;;23.80;62.46;98392.53;2092334;28;19928;-65
2023/06/10 01:59:48;;;;;;;;;;;;;;;23.80;62.42;98389.81;2090325;28;19935;-65
2023/06/10 02:00:48;;;;;;;;;;;;;;;23.80;62.37;98392.53;2090857;28;20412;-65
2023/06/10 02:01:50;;;;;;;;;;;;;;;23.80;62.39;98392.53;2091452;28;19924;-65
2023/06/10 02:02:50;;;;;;;;;;;;;;;23.79;62.51;98390.06;2090024;28;19920;-66
2023/06/10 02:03:52;;;;;;;;;;;;;;;23.79;62.39;98390.06;2091115;28;19924;-66
2023/06/10 02:04:52;;;;;;;;;;;;;;;23.79;62.54;98385.47;2091010;28;19927;-65
2023/06/10 02:05:54;;;;;;;;;;;;;;;23.78;62.50;98396.53;2091085;28;20383;-65
2023/06/10 02:06:56;;;;;;;;;;;;;;;23.78;62.25;98389.22;2090187;28;20390;-65
2023/06/10 02:07:57;;;;;;;;;;;;;;;23.79;62.44;98392.75;2091420;28;19981;-66
2023/06/10 02:08:58;;;;;;;;;;;;;;;23.79;62.25;98388.19;2089206;28;19924;-66
2023/06/10 02:09:59;;;;;;;;;;;;;;;23.81;62.30;98390.63;2090826;28;19931;-65
2023/06/10 02:11:00;;;;;;;;;;;;;;;23.80;62.40;98389.81;2090707;28;19920;-66
2023/06/10 02:12:02;;;;;;;;;;;;;;;23.80;62.43;98384.41;2092375;28;19920;-65
2023/06/10 02:13:03;;;;;;;;;;;;;;;23.80;62.54;98386.28;2091131;28;19974;-65
2023/06/10 02:14:04;;;;;;;;;;;;;;;23.77;62.34;98379.47;2091232;28;20319;-66
2023/06/10 02:15:05;;;;;;;;;;;;;;;23.79;62.41;98380.06;2091679;28;19943;-66
2023/06/10 02:16:06;;;;;;;;;;;;;;;23.79;62.42;98385.47;2090765;28;19938;-66
2023/06/10 02:17:07;;;;;;;;;;;;;;;23.79;62.42;98384.63;2091674;28;19921;-66
2023/06/10 02:18:09;;;;;;;;;;;;;;;23.79;62.36;98381.94;2088111;28;20373;-66
2023/06/10 02:19:10;;;;;;;;;;;;;;;23.78;62.43;98375.69;2089255;28;19981;-65
2023/06/10 02:20:13;;;;;;;;;;;;;;;23.79;62.27;98381.94;2092945;28;20318;-66
2023/06/10 02:21:14;;;;;;;;;;;;;;;23.79;62.46;98387.34;2090934;28;20156;-66
2023/06/10 02:22:16;;;;;;;;;;;;;;;23.79;62.60;98382.78;2091640;28;19951;-66
2023/06/10 02:23:17;;;;;;;;;;;;;;;23.79;62.54;98380.06;2091514;28;19924;-66
2023/06/10 02:24:19;;;;;;;;;;;;;;;23.80;62.27;98381.69;2088198;28;19921;-66
2023/06/10 02:25:19;;;;;;;;;;;;;;;23.80;62.40;98380.88;2089731;28;19928;-67
2023/06/10 02:26:22;;;;;;;;;;;;;;;23.81;62.34;98385.22;2091477;28;19996;-66
2023/06/10 02:27:23;;;;;;;;;;;;;;;23.79;62.39;98388.19;2092043;28;19931;-66
2023/06/10 02:28:24;;;;;;;;;;;;;;;23.79;62.46;98388.19;2091166;28;19928;-66
2023/06/10 02:29:25;;;;;;;;;;;;;;;23.78;62.51;98385.72;2090910;28;20000;-65
2023/06/10 02:30:26;;;;;;;;;;;;;;;23.78;62.36;98383.81;2091040;28;19924;-66
2023/06/10 02:31:28;;;;;;;;;;;;;;;23.78;62.52;98386.53;2088530;28;19930;-66
2023/06/10 02:32:30;;;;;;;;;;;;;;;23.80;62.24;98386.28;2091973;28;19925;-65
2023/06/10 02:33:31;;;;;;;;;;;;;;;23.78;62.39;98383.81;2090471;28;20560;-66
2023/06/10 02:34:33;;;;;;;;;;;;;;;23.81;62.22;98379.81;2090887;28;19924;-65
2023/06/10 02:35:34;;;;;;;;;;;;;;;23.78;62.46;98386.53;2088162;28;19929;-65
2023/06/10 02:36:36;;;;;;;;;;;;;;;23.78;62.33;98381.09;2091017;28;19924;-66
2023/06/10 02:37:38;;;;;;;;;;;;;;;23.77;62.38;98384.91;2089786;28;19973;-65
2023/06/10 02:38:40;;;;;;;;;;;;;;;23.78;62.44;98381.09;2089273;28;19924;-66
2023/06/10 02:39:40;;;;;;;;;;;;;;;23.77;62.42;98389.50;2092352;28;19924;-65
2023/06/10 02:40:42;;;;;;;;;;;;;;;23.76;62.57;98377.81;2091288;28;19924;-65
2023/06/10 02:41:42;;;;;;;;;;;;;;;23.78;62.34;98383.00;2091555;28;19940;-66
2023/06/10 02:42:44;;;;;;;;;;;;;;;23.78;62.29;98375.69;2091273;28;20272;-66
2023/06/10 02:43:44;;;;;;;;;;;;;;;23.77;62.41;98376.78;2088091;28;20070;-66
2023/06/10 02:44:46;;;;;;;;;;;;;;;23.75;62.55;98376.19;2091483;28;20349;-65
2023/06/10 02:45:46;;;;;;;;;;;;;;;23.76;62.67;98380.53;2089309;28;20049;-65
2023/06/10 02:46:48;;;;;;;;;;;;;;;23.75;62.63;98378.88;2090062;28;19932;-66
2023/06/10 02:47:48;;;;;;;;;;;;;;;23.75;62.43;98376.19;2091152;28;19967;-65
2023/06/10 02:48:51;;;;;;;;;;;;;;;23.75;62.51;98376.19;2090243;28;19924;-65
2023/06/10 02:49:52;;;;;;;;;;;;;;;23.76;62.50;98382.41;2091606;28;19920;-66
2023/06/10 02:50:53;;;;;;;;;;;;;;;23.75;62.43;98384.31;2090770;28;19924;-66
2023/06/10 02:51:54;;;;;;;;;;;;;;;23.75;62.52;98384.31;2091036;28;20512;-66
2023/06/10 02:52:57;;;;;;;;;;;;;;;23.75;62.38;98387.00;2092511;28;19934;-66
2023/06/10 02:53:57;;;;;;;;;;;;;;;23.76;62.54;98383.22;2090804;28;19924;-65
2023/06/10 02:54:59;;;;;;;;;;;;;;;23.76;62.47;98388.66;2090182;28;19925;-66
2023/06/10 02:55:59;;;;;;;;;;;;;;;23.77;62.58;98384.91;2092985;28;19972;-65
2023/06/10 02:57:01;;;;;;;;;;;;;;;23.74;62.63;98393.50;2087710;28;19925;-65
2023/06/10 02:58:02;;;;;;;;;;;;;;;23.74;62.58;98387.28;2086691;28;20351;-65
2023/06/10 02:59:07;;;;;;;;;;;;;;;23.73;62.69;98383.72;2089303;28;20066;-66
2023/06/10 03:00:10;;;;;;;;;;;;;;;23.72;62.74;98383.97;2089368;28;19931;-65
2023/06/10 03:01:13;;;;;;;;;;;;;;;23.73;62.54;98388.31;2089737;28;19928;-65
2023/06/10 03:02:13;;;;;;;;;;;;;;;23.72;62.59;98384.78;2090214;28;19931;-66
2023/06/10 03:03:15;;;;;;;;;;;;;;;23.73;62.55;98383.72;2087116;28;19955;-66
2023/06/10 03:04:16;;;;;;;;;;;;;;;23.72;62.67;98381.28;2088425;28;20695;-66
2023/06/10 03:05:17;;;;;;;;;;;;;;;23.75;62.47;98383.50;2088335;28;20006;-66
2023/06/10 03:06:18;;;;;;;;;;;;;;;23.73;62.64;98378.31;2088126;28;19960;-66
2023/06/10 03:07:20;;;;;;;;;;;;;;;23.74;62.47;98382.69;2085753;28;19931;-66
2023/06/10 03:08:22;;;;;;;;;;;;;;;23.75;62.32;98383.50;2088021;28;19925;-66
2023/06/10 03:09:24;;;;;;;;;;;;;;;23.76;62.53;98385.13;2088560;28;19938;-66
2023/06/10 03:10:24;;;;;;;;;;;;;;;23.74;62.20;98388.09;2089624;28;19978;-66
2023/06/10 03:11:26;;;;;;;;;;;;;;;23.73;62.47;98386.44;2087620;28;20374;-65
2023/06/10 03:12:26;;;;;;;;;;;;;;;23.76;62.59;98393.25;2089686;28;21489;-66
2023/06/10 03:13:28;;;;;;;;;;;;;;;23.77;62.48;98389.50;2086555;28;19924;-65
2023/06/10 03:14:28;;;;;;;;;;;;;;;23.74;62.47;98382.69;2085395;28;20019;-64
2023/06/10 03:15:32;;;;;;;;;;;;;;;23.77;62.49;98389.50;2089239;28;20067;-65
2023/06/10 03:16:33;;;;;;;;;;;;;;;23.73;62.65;98381.00;2089995;28;19924;-65
2023/06/10 03:17:34;;;;;;;;;;;;;;;23.74;62.58;98385.38;2086427;28;19959;-66
2023/06/10 03:18:35;;;;;;;;;;;;;;;23.74;62.45;98388.09;2090103;28;19935;-66
2023/06/10 03:19:37;;;;;;;;;;;;;;;23.75;62.46;98386.19;2090272;28;19929;-65
2023/06/10 03:20:39;;;;;;;;;;;;;;;23.74;62.58;98385.38;2086783;28;20393;-65
2023/06/10 03:21:44;;;;;;;;;;;;;;;23.75;62.40;98381.59;2090860;28;20454;-65
2023/06/10 03:22:45;;;;;;;;;;;;;;;23.74;62.60;98382.69;2089469;28;19936;-65
2023/06/10 03:23:48;;;;;;;;;;;;;;;23.75;62.52;98380.78;2090597;28;19920;-65
2023/06/10 03:24:50;;;;;;;;;;;;;;;23.76;62.53;98383.22;2088920;28;19924;-65
2023/06/10 03:25:51;;;;;;;;;;;;;;;23.77;62.51;98384.06;2085328;28;19927;-66
2023/06/10 03:26:52;;;;;;;;;;;;;;;23.75;62.42;98381.59;2088041;28;20485;-66
2023/06/10 03:27:53;;;;;;;;;;;;;;;23.76;62.31;98380.53;2092086;28;20298;-65
2023/06/10 03:28:54;;;;;;;;;;;;;;;23.75;62.20;98376.19;2088074;28;20645;-65
2023/06/10 03:29:55;;;;;;;;;;;;;;;23.76;62.57;98377.81;2089531;28;19928;-65
2023/06/10 03:30:56;;;;;;;;;;;;;;;23.77;62.53;98379.47;2090962;28;19928;-66
2023/06/10 03:31:57;;;;;;;;;;;;;;;23.77;62.34;98381.38;2087425;28;19924;-66
2023/06/10 03:32:58;;;;;;;;;;;;;;;23.77;62.43;98378.66;2090904;28;20053;-66
2023/06/10 03:33:59;;;;;;;;;;;;;;;23.78;62.28;98377.59;2086243;28;19924;-65
2023/06/10 03:35:00;;;;;;;;;;;;;;;23.77;62.38;98378.66;2089681;28;20311;-66
2023/06/10 03:36:01;;;;;;;;;;;;;;;23.75;62.38;98380.78;2085765;28;19929;-66
2023/06/10 03:37:04;;;;;;;;;;;;;;;23.75;62.40;98378.88;2089860;28;19962;-66
2023/06/10 03:38:04;;;;;;;;;;;;;;;23.77;62.49;98373.25;2083958;28;20019;-66
2023/06/10 03:39:07;;;;;;;;;;;;;;;23.74;62.54;98374.56;2088537;28;19920;-65
2023/06/10 03:40:08;;;;;;;;;;;;;;;23.74;62.48;98374.56;2087024;28;19924;-66
2023/06/10 03:41:10;;;;;;;;;;;;;;;23.74;62.54;98374.56;2090105;28;19920;-66
2023/06/10 03:42:10;;;;;;;;;;;;;;;23.74;62.62;98374.56;2087111;28;20432;-66
2023/06/10 03:43:12;;;;;;;;;;;;;;;23.75;62.55;98369.94;2089859;28;19970;-66
2023/06/10 03:44:12;;;;;;;;;;;;;;;23.76;62.45;98382.41;2090349;28;19920;-65
2023/06/10 03:45:14;;;;;;;;;;;;;;;23.76;62.34;98377.81;2088226;28;19928;-65
2023/06/10 03:46:15;;;;;;;;;;;;;;;23.76;62.53;98380.53;2090510;28;19977;-65
2023/06/10 03:47:17;;;;;;;;;;;;;;;23.76;62.58;98383.22;2085280;28;19928;-66
2023/06/10 03:48:17;;;;;;;;;;;;;;;23.76;62.42;98380.53;2087457;28;19928;-66
2023/06/10 03:49:19;;;;;;;;;;;;;;;23.77;62.40;98379.47;2089347;28;20475;-66
2023/06/10 03:50:19;;;;;;;;;;;;;;;23.77;62.42;98384.06;2087477;28;20447;-66
2023/06/10 03:51:21;;;;;;;;;;;;;;;23.75;62.42;98381.59;2086527;28;19925;-66
2023/06/10 03:52:21;;;;;;;;;;;;;;;23.75;62.50;98380.78;2087376;28;20691;-66
2023/06/10 03:53:23;;;;;;;;;;;;;;;23.77;62.58;98384.91;2087159;28;19924;-66
2023/06/10 03:54:25;;;;;;;;;;;;;;;23.75;62.58;98384.31;2087719;28;19951;-66
2023/06/10 03:55:26;;;;;;;;;;;;;;;23.76;62.38;98383.22;2089643;28;19920;-65
2023/06/10 03:56:28;;;;;;;;;;;;;;;23.75;62.67;98376.19;2086171;28;19928;-66
2023/06/10 03:57:29;;;;;;;;;;;;;;;23.76;62.51;98377.81;2089620;28;19948;-64
2023/06/10 03:58:30;;;;;;;;;;;;;;;23.74;62.55;98369.13;2087703;28;20021;-65
2023/06/10 03:59:31;;;;;;;;;;;;;;;23.76;62.45;98366.16;2089732;28;19924;-65
2023/06/10 04:00:41;;;;;;;;;;;;;;;23.76;62.46;98368.88;2088574;28;19928;-65
2023/06/10 04:01:43;;;;;;;;;;;;;;;23.77;62.38;98379.47;2089931;28;19928;-65
2023/06/10 04:02:45;;;;;;;;;;;;;;;23.76;62.55;98377.81;2085606;28;19928;-66
2023/06/10 04:03:48;;;;;;;;;;;;;;;23.76;62.60;98379.72;2088787;28;19925;-65
2023/06/10 04:04:50;;;;;;;;;;;;;;;23.75;62.39;98378.88;2086711;28;20040;-66
2023/06/10 04:05:52;;;;;;;;;;;;;;;23.75;62.66;98387.00;2089833;28;20579;-65
2023/06/10 04:06:52;;;;;;;;;;;;;;;23.75;62.56;98380.78;2090726;28;20040;-66
2023/06/10 04:07:54;;;;;;;;;;;;;;;23.76;62.49;98380.53;2091109;28;19940;-66
2023/06/10 04:08:55;;;;;;;;;;;;;;;23.76;62.38;98382.41;2086733;28;19956;-66
2023/06/10 04:09:58;;;;;;;;;;;;;;;23.76;62.43;98383.22;2091903;28;19921;-66
2023/06/10 04:10:59;;;;;;;;;;;;;;;23.76;62.44;98383.22;2088795;28;20241;-66
2023/06/10 04:12:00;;;;;;;;;;;;;;;23.76;62.49;98380.53;2091404;28;19928;-65
2023/06/10 04:13:02;;;;;;;;;;;;;;;23.77;62.58;98386.78;2092864;28;19939;-66
2023/06/10 04:14:03;;;;;;;;;;;;;;;23.76;62.46;98377.81;2090835;28;19920;-66
2023/06/10 04:15:04;;;;;;;;;;;;;;;23.74;62.68;98379.97;2090859;28;20450;-66
2023/06/10 04:16:06;;;;;;;;;;;;;;;23.76;62.45;98385.13;2090761;28;19930;-66
2023/06/10 04:17:06;;;;;;;;;;;;;;;23.74;62.46;98377.25;2090632;28;21517;-66
2023/06/10 04:18:08;;;;;;;;;;;;;;;23.73;62.58;98380.19;2090212;28;20797;-66
2023/06/10 04:19:09;;;;;;;;;;;;;;;23.75;62.42;98384.31;2089795;28;20361;-66
2023/06/10 04:20:10;;;;;;;;;;;;;;;23.76;62.41;98382.41;2090566;28;20379;-66
2023/06/10 04:21:11;;;;;;;;;;;;;;;23.73;62.50;98382.91;2091233;28;20048;-66
2023/06/10 04:22:12;;;;;;;;;;;;;;;23.73;62.63;98377.50;2091597;28;19924;-66
2023/06/10 04:23:13;;;;;;;;;;;;;;;23.75;62.61;98380.78;2091045;28;19925;-66
2023/06/10 04:24:14;;;;;;;;;;;;;;;23.73;62.57;98372.88;2091336;28;20684;-66
2023/06/10 04:25:16;;;;;;;;;;;;;;;23.74;62.40;98374.56;2090210;28;20013;-66
2023/06/10 04:26:18;;;;;;;;;;;;;;;23.76;62.41;98377.81;2090703;28;20393;-66
2023/06/10 04:27:19;;;;;;;;;;;;;;;23.77;62.48;98378.66;2087648;28;19931;-66
2023/06/10 04:28:20;;;;;;;;;;;;;;;23.76;62.51;98377.81;2089922;28;19943;-65
2023/06/10 04:29:20;;;;;;;;;;;;;;;23.74;62.58;98379.97;2090279;28;20058;-66
2023/06/10 04:30:22;;;;;;;;;;;;;;;23.75;62.46;98378.06;2090925;28;19920;-65
2023/06/10 04:31:23;;;;;;;;;;;;;;;23.73;62.42;98372.88;2092384;28;19920;-66
2023/06/10 04:32:25;;;;;;;;;;;;;;;23.73;62.62;98367.47;2091832;28;20403;-66
2023/06/10 04:33:26;;;;;;;;;;;;;;;23.73;62.60;98369.38;2090141;28;19935;-66
2023/06/10 04:34:27;;;;;;;;;;;;;;;23.74;62.68;98376.44;2089940;28;20307;-65
2023/06/10 04:35:28;;;;;;;;;;;;;;;23.75;62.47;98373.47;2091050;28;19920;-65
2023/06/10 04:36:30;;;;;;;;;;;;;;;23.75;62.71;98375.38;2091713;28;19963;-65
2023/06/10 04:37:30;;;;;;;;;;;;;;;23.73;62.42;98375.59;2090544;28;19924;-66
2023/06/10 04:38:32;;;;;;;;;;;;;;;23.73;62.44;98378.31;2090130;28;19928;-65
2023/06/10 04:39:32;;;;;;;;;;;;;;;23.72;62.64;98379.38;2091000;28;19924;-65
2023/06/10 04:40:35;;;;;;;;;;;;;;;23.73;62.53;98383.72;2091312;28;19935;-65
2023/06/10 04:41:36;;;;;;;;;;;;;;;23.73;62.60;98382.91;2091251;28;19928;-66
2023/06/10 04:42:38;;;;;;;;;;;;;;;23.72;62.49;98373.97;2090082;28;19928;-66
2023/06/10 04:43:38;;;;;;;;;;;;;;;23.74;62.54;98379.16;2090712;28;20450;-66
2023/06/10 04:44:40;;;;;;;;;;;;;;;23.74;62.48;98379.97;2089263;28;19932;-66
2023/06/10 04:45:44;;;;;;;;;;;;;;;23.74;62.53;98381.84;2090569;28;19920;-66
2023/06/10 04:46:46;;;;;;;;;;;;;;;23.72;62.41;98381.28;2089702;28;20252;-66
2023/06/10 04:47:46;;;;;;;;;;;;;;;23.71;62.57;98380.47;2091183;28;20399;-65
2023/06/10 04:48:48;;;;;;;;;;;;;;;23.72;62.62;98382.09;2090114;28;19974;-66
2023/06/10 04:49:48;;;;;;;;;;;;;;;23.73;62.39;98382.91;2090488;28;19928;-65
2023/06/10 04:50:51;;;;;;;;;;;;;;;23.73;62.69;98386.44;2090248;28;20015;-65
2023/06/10 04:51:51;;;;;;;;;;;;;;;23.73;62.39;98389.13;2090869;28;19960;-65
2023/06/10 04:52:53;;;;;;;;;;;;;;;23.72;62.72;98386.69;2092080;28;20379;-66
2023/06/10 04:53:53;;;;;;;;;;;;;;;23.72;62.47;98389.41;2090092;28;20426;-66
2023/06/10 04:54:55;;;;;;;;;;;;;;;23.72;62.69;98390.22;2089929;28;19920;-66
2023/06/10 04:55:57;;;;;;;;;;;;;;;23.72;62.57;98382.09;2092815;28;20335;-65
2023/06/10 04:56:59;;;;;;;;;;;;;;;23.71;62.54;98385.88;2091005;28;19920;-65
2023/06/10 04:57:59;;;;;;;;;;;;;;;23.71;62.57;98379.59;2090587;28;20307;-65
2023/06/10 04:59:01;;;;;;;;;;;;;;;23.71;62.66;98379.59;2087773;28;19927;-65
2023/06/10 05:00:05;;;;;;;;;;;;;;;23.71;62.71;98383.16;2090491;28;19935;-65
2023/06/10 05:01:07;;;;;;;;;;;;;;;23.73;62.80;98377.50;2091745;28;19928;-67
2023/06/10 05:02:07;;;;;;;;;;;;;;;23.71;62.79;98375.03;2094155;28;19964;-65
2023/06/10 05:03:09;;;;;;;;;;;;;;;23.72;62.63;98379.38;2091805;28;19927;-66
2023/06/10 05:04:09;;;;;;;;;;;;;;;23.72;62.57;98376.66;2093239;28;20000;-66
2023/06/10 05:05:11;;;;;;;;;;;;;;;23.71;62.71;98374.19;2092548;28;19951;-66
2023/06/10 05:06:11;;;;;;;;;;;;;;;23.74;62.55;98373.72;2092751;28;19931;-66
2023/06/10 05:07:13;;;;;;;;;;;;;;;23.72;62.42;98376.66;2091310;28;20374;-65
2023/06/10 05:08:13;;;;;;;;;;;;;;;23.72;62.48;98375.84;2091251;28;20031;-66
2023/06/10 05:09:15;;;;;;;;;;;;;;;23.70;62.73;98373.34;2090608;28;20693;-66
2023/06/10 05:10:15;;;;;;;;;;;;;;;23.72;62.50;98371.25;2090157;28;19924;-66
2023/06/10 05:11:18;;;;;;;;;;;;;;;23.71;62.58;98376.91;2089759;28;22436;-66
2023/06/10 05:12:19;;;;;;;;;;;;;;;23.70;62.59;98375.25;2087980;28;19924;-66
2023/06/10 05:13:20;;;;;;;;;;;;;;;23.70;62.67;98373.34;2090443;28;20379;-66
2023/06/10 05:14:21;;;;;;;;;;;;;;;23.71;62.74;98379.59;2091469;28;19935;-66
2023/06/10 05:15:23;;;;;;;;;;;;;;;23.69;62.79;98376.31;2091449;28;19924;-66
2023/06/10 05:16:23;;;;;;;;;;;;;;;23.69;62.74;98370.91;2089710;28;19924;-65
2023/06/10 05:17:25;;;;;;;;;;;;;;;23.70;62.71;98375.25;2090507;28;19924;-66
2023/06/10 05:18:25;;;;;;;;;;;;;;;23.69;62.80;98371.72;2090309;28;20023;-66
2023/06/10 05:19:27;;;;;;;;;;;;;;;23.69;62.68;98379.03;2091385;28;19920;-65
2023/06/10 05:20:28;;;;;;;;;;;;;;;23.69;62.68;98379.03;2089428;28;19924;-63
2023/06/10 05:21:30;;;;;;;;;;;;;;;23.69;62.44;98377.13;2088738;28;19939;-65